Time;durP1;ratioP1;P1;durP2;ratioP2;P2;SDS_P1;SDS_P2;PMS_P1;PMS_P2;Temp;Humidity;BMP_temperature;BMP_pressure;BME280_temperature;BME280_humidity;BME280_pressure;Samples;Min_cycle;Max_cycle;Signal;HPM_P1;HPM_P2
2021/05/26 00:00:06;;;;;;;6.87;4.67;;;;;;;11.98;65.76;100294.34;125401;1104;103336;-82
2021/05/26 00:02:36;;;;;;;4.53;4.13;;;;;;;11.98;65.85;100299.69;125220;1102;103133;-80
2021/05/26 00:05:05;;;;;;;5.47;4.13;;;;;;;11.94;65.58;100294.45;124984;1104;103057;-82
2021/05/26 00:07:33;;;;;;;5.00;3.83;;;;;;;11.93;65.76;100296.27;125238;1104;103409;-79
2021/05/26 00:10:00;;;;;;;4.97;4.00;;;;;;;11.90;65.64;100300.81;124949;1097;103284;-81
2021/05/26 00:12:28;;;;;;;5.70;3.85;;;;;;;11.91;65.87;100305.23;124833;1102;103311;-81
2021/05/26 00:15:16;;;;;;;6.35;4.28;;;;;;;11.93;65.68;100296.27;125177;1104;103371;-80
2021/05/26 00:17:58;;;;;;;7.50;4.80;;;;;;;11.93;65.69;100298.03;124881;1102;102992;-79
2021/05/26 00:20:25;;;;;;;4.43;3.67;;;;;;;11.93;65.68;100298.93;124999;1102;103241;-81
2021/05/26 00:22:53;;;;;;;6.87;4.20;;;;;;;11.88;65.88;100298.20;125388;1104;103142;-80
2021/05/26 00:25:20;;;;;;;5.43;3.90;;;;;;;11.89;66.28;100297.29;124806;1097;103153;-80
2021/05/26 00:27:52;;;;;;;7.73;3.77;;;;;;;11.90;65.56;100292.81;124677;1102;103070;-81
2021/05/26 00:30:20;;;;;;;6.40;4.20;;;;;;;11.86;65.59;100300.93;125138;1104;103839;-81
2021/05/26 00:32:50;;;;;;;7.17;3.67;;;;;;;11.89;65.67;100297.29;124932;1104;103155;-80
2021/05/26 00:35:17;;;;;;;5.33;4.15;;;;;;;11.87;65.54;100301.80;124735;1104;103151;-81
2021/05/26 00:37:45;;;;;;;5.83;4.08;;;;;;;11.84;65.80;100307.23;124598;1104;103115;-80
2021/05/26 00:40:13;;;;;;;4.37;3.20;;;;;;;11.85;65.46;100312.52;124975;1102;102981;-81
2021/05/26 00:42:40;;;;;;;6.23;3.40;;;;;;;11.82;64.99;100323.30;125015;1096;103111;-81
2021/05/26 00:45:08;;;;;;;5.35;4.35;;;;;;;11.80;65.00;100321.61;125207;1101;103198;-80
2021/05/26 00:47:51;;;;;;;6.28;3.95;;;;;;;11.73;65.29;100326.27;125005;1104;103578;-81
2021/05/26 00:50:21;;;;;;;5.10;4.00;;;;;;;11.68;65.45;100329.07;125258;1096;103049;-80
2021/05/26 00:53:05;;;;;;;5.45;3.40;;;;;;;11.68;65.24;100331.73;124918;1102;103042;-80
2021/05/26 00:55:33;;;;;;;4.23;3.20;;;;;;;11.69;65.31;100337.97;125243;1101;103364;-81
2021/05/26 00:58:02;;;;;;;8.00;4.30;;;;;;;11.65;65.52;100337.19;124954;1101;103131;-79
2021/05/26 01:00:31;;;;;;;6.98;3.88;;;;;;;11.62;65.33;100339.06;125132;1101;103074;-79
2021/05/26 01:03:13;;;;;;;5.40;4.00;;;;;;;11.54;65.32;100345.53;125538;1101;103094;-82
2021/05/26 01:05:41;;;;;;;5.38;3.80;;;;;;;11.54;65.13;100349.97;125066;1096;103094;-79
2021/05/26 01:08:09;;;;;;;4.37;3.10;;;;;;;11.49;65.00;100339.46;125155;1096;103581;-81
2021/05/26 01:10:50;;;;;;;4.97;3.47;;;;;;;11.45;64.83;100347.59;125340;1101;103536;-81
2021/05/26 01:13:33;;;;;;;4.17;3.43;;;;;;;11.41;64.99;100341.50;125281;1104;103237;-81
2021/05/26 01:16:14;;;;;;;6.17;4.50;;;;;;;11.35;65.23;100347.87;125270;1104;103538;-82
2021/05/26 01:18:42;;;;;;;4.53;2.90;;;;;;;11.35;64.88;100344.34;125091;1104;103064;-81
2021/05/26 01:21:11;;;;;;;4.20;3.00;;;;;;;11.36;64.56;100354.09;125225;1104;103238;-81
2021/05/26 01:23:45;;;;;;;11.75;4.30;;;;;;;11.35;64.35;100352.34;124822;1105;103265;-80
2021/05/26 01:26:12;;;;;;;10.13;3.63;;;;;;;11.32;64.67;100368.44;125254;1104;103158;-80
2021/05/26 01:28:53;;;;;;;4.10;3.47;;;;;;;11.27;64.82;100357.89;124457;1100;103122;-80
2021/05/26 01:31:35;;;;;;;5.07;2.77;;;;;;;11.25;64.29;100372.19;124480;1099;103393;-79
2021/05/26 01:34:03;;;;;;;3.75;2.98;;;;;;;11.21;65.09;100371.42;124469;1100;103239;-81
2021/05/26 01:36:32;;;;;;;4.10;3.18;;;;;;;11.18;64.72;100372.39;124831;1099;103412;-82
2021/05/26 01:39:02;;;;;;;6.00;3.33;;;;;;;11.18;64.87;100377.72;125308;1104;103109;-80
2021/05/26 01:41:29;;;;;;;5.00;3.43;;;;;;;11.14;64.88;100377.84;125261;1104;103285;-80
2021/05/26 01:44:11;;;;;;;8.40;3.33;;;;;;;11.06;65.15;100375.39;125247;1104;103057;-81
2021/05/26 01:46:41;;;;;;;3.50;3.00;;;;;;;11.07;65.35;100377.14;125175;1099;103317;-82
2021/05/26 01:49:09;;;;;;;3.63;3.07;;;;;;;11.03;65.25;100376.34;124815;1104;103173;-80
2021/05/26 01:51:37;;;;;;;3.43;2.78;;;;;;;11.02;64.93;100379.95;125103;1101;103094;-80
2021/05/26 01:54:18;;;;;;;4.63;3.00;;;;;;;10.99;65.13;100379.16;124842;1104;103115;-81
2021/05/26 01:56:45;;;;;;;4.33;2.80;;;;;;;10.99;64.78;100382.69;125069;1103;103250;-79
2021/05/26 01:59:13;;;;;;;3.87;2.83;;;;;;;11.00;65.20;100396.91;124486;1101;103236;-82
2021/05/26 02:01:41;;;;;;;3.27;2.50;;;;;;;10.94;64.71;100400.63;125351;1101;103812;-81
2021/05/26 02:04:08;;;;;;;6.28;3.60;;;;;;;10.91;64.93;100392.69;125099;1104;103062;-80
2021/05/26 02:06:39;;;;;;;2.83;2.60;;;;;;;10.88;65.22;100395.45;124937;1101;103073;-81
2021/05/26 02:09:06;;;;;;;3.77;3.40;;;;;;;10.85;65.11;100398.21;124619;1096;103040;-81
2021/05/26 02:14:33;;;;;;;4.73;3.40;;;;;;;10.79;65.37;100404.56;125613;1096;103100;-81
2021/05/26 02:17:09;;;;;;;3.20;2.83;;;;;;;10.72;65.54;100402.98;125573;1101;103055;-81
2021/05/26 02:19:37;;;;;;;3.97;2.97;;;;;;;10.70;65.97;100405.70;125084;1097;103094;-81
2021/05/26 02:22:04;;;;;;;3.93;2.93;;;;;;;10.63;65.55;100406.75;125566;1101;103189;-81
2021/05/26 02:24:32;;;;;;;3.33;2.53;;;;;;;10.59;66.14;100412.22;125625;1096;103181;-81
2021/05/26 02:26:59;;;;;;;3.43;3.13;;;;;;;10.54;65.74;100421.20;125681;1096;102969;-83
2021/05/26 02:29:41;;;;;;;3.93;3.48;;;;;;;10.52;66.70;100419.49;125004;1101;103674;-80
2021/05/26 02:32:09;;;;;;;5.68;3.20;;;;;;;10.49;66.33;100431.09;125052;1101;103234;-81
2021/05/26 02:34:37;;;;;;;3.73;2.95;;;;;;;10.42;66.24;100417.97;125129;1101;103077;-81
2021/05/26 02:37:05;;;;;;;5.38;3.25;;;;;;;10.43;66.10;100420.59;125471;1101;103059;-81
2021/05/26 02:39:33;;;;;;;4.07;3.60;;;;;;;10.40;65.92;100422.48;125666;1101;103121;-82
2021/05/26 02:42:00;;;;;;;3.77;3.40;;;;;;;10.36;66.47;100421.67;125605;1096;103227;-82
2021/05/26 02:44:28;;;;;;;4.93;3.58;;;;;;;10.32;66.20;100427.95;125628;1101;103013;-80
2021/05/26 02:46:55;;;;;;;3.83;3.30;;;;;;;10.31;66.41;100429.72;125199;1101;103450;-82
2021/05/26 02:49:23;;;;;;;4.03;2.90;;;;;;;10.28;66.39;100429.81;125638;1101;103065;-81
2021/05/26 02:51:50;;;;;;;3.43;2.55;;;;;;;10.25;66.63;100426.34;125327;1096;103254;-80
2021/05/26 02:54:18;;;;;;;4.13;3.07;;;;;;;10.22;66.23;100427.28;125270;1096;103291;-84
2021/05/26 02:56:45;;;;;;;3.05;2.75;;;;;;;10.24;66.76;100425.48;125497;1101;103060;-80
2021/05/26 02:59:26;;;;;;;3.17;2.87;;;;;;;10.23;66.30;100431.70;125161;1102;103046;-80
2021/05/26 03:01:54;;;;;;;3.58;3.15;;;;;;;10.06;66.88;100415.28;125290;1101;103190;-80
2021/05/26 03:04:22;;;;;;;6.17;3.17;;;;;;;10.11;66.67;100432.02;125256;1101;103153;-80
2021/05/26 03:06:49;;;;;;;4.25;3.03;;;;;;;10.13;66.64;100438.16;124744;1097;103148;-82
2021/05/26 03:09:17;;;;;;;2.67;2.40;;;;;;;10.16;66.50;100444.29;125537;1101;103137;-80
2021/05/26 03:11:44;;;;;;;3.77;2.60;;;;;;;10.15;66.33;100436.34;125468;1096;103084;-81
2021/05/26 03:14:11;;;;;;;2.60;2.20;;;;;;;10.08;66.85;100440.08;125522;1101;103027;-80
2021/05/26 03:16:41;;;;;;;4.60;3.07;;;;;;;10.11;67.00;100434.67;125065;1096;103111;-79
2021/05/26 03:19:09;;;;;;;4.25;2.75;;;;;;;10.15;66.34;100439.01;124457;1101;103253;-79
2021/05/26 03:21:36;;;;;;;2.80;2.57;;;;;;;10.19;66.05;100441.55;125440;1101;103062;-81
2021/05/26 03:24:04;;;;;;;4.05;2.63;;;;;;;10.24;66.14;100437.92;125420;1101;103078;-80
2021/05/26 03:26:32;;;;;;;2.63;2.43;;;;;;;10.26;65.86;100439.60;125198;1096;103253;-81
2021/05/26 03:29:00;;;;;;;4.97;2.60;;;;;;;10.28;65.84;100439.59;125223;1096;103085;-81
2021/05/26 03:31:30;;;;;;;4.30;2.30;;;;;;;10.32;65.71;100441.27;125617;1101;103059;-80
2021/05/26 03:34:12;;;;;;;3.85;2.40;;;;;;;10.36;66.22;100440.31;124777;1104;103240;-81
2021/05/26 03:36:41;;;;;;;3.30;2.45;;;;;;;10.40;65.77;100433.13;124752;1098;103888;-81
2021/05/26 03:39:10;;;;;;;2.70;2.20;;;;;;;10.40;65.75;100430.47;124930;1100;103485;-82
2021/05/26 03:41:41;;;;;;;3.00;2.50;;;;;;;10.43;65.52;100436.56;125237;1104;103103;-80
2021/05/26 03:44:09;;;;;;;4.60;2.13;;;;;;;10.48;65.42;100431.14;124454;1105;103162;-80
2021/05/26 03:46:37;;;;;;;3.15;2.65;;;;;;;10.52;65.19;100439.00;124748;1104;103152;-79
2021/05/26 03:49:05;;;;;;;4.88;2.13;;;;;;;10.52;64.69;100432.81;124793;1104;103433;-81
2021/05/26 03:51:34;;;;;;;2.90;2.20;;;;;;;10.57;65.35;100432.67;125370;1104;102055;-81
2021/05/26 03:54:03;;;;;;;2.55;2.35;;;;;;;10.63;65.10;100440.52;124828;1105;103336;-80
2021/05/26 03:56:44;;;;;;;3.33;2.10;;;;;;;10.69;64.67;100432.38;124871;1104;104011;-82
2021/05/26 03:59:25;;;;;;;3.83;2.10;;;;;;;10.70;65.15;100437.66;124710;1104;103269;-79
2021/05/26 04:01:53;;;;;;;3.80;2.27;;;;;;;10.76;64.92;100447.27;124751;1104;103044;-81
2021/05/26 04:04:21;;;;;;;3.05;2.35;;;;;;;10.77;64.12;100442.80;124733;1100;103134;-80
2021/05/26 04:06:50;;;;;;;5.25;2.48;;;;;;;10.79;64.52;100441.85;125138;1104;103243;-81
2021/05/26 04:09:31;;;;;;;2.63;2.43;;;;;;;10.80;64.05;100440.95;125084;1105;103233;-80
2021/05/26 04:12:12;;;;;;;3.90;2.40;;;;;;;10.86;64.19;100442.56;125061;1105;103330;-80
2021/05/26 04:14:54;;;;;;;2.37;1.77;;;;;;;10.97;64.26;100444.94;125224;1105;103119;-79
2021/05/26 04:17:22;;;;;;;3.07;1.80;;;;;;;11.01;63.42;100449.29;124746;1104;103327;-80
2021/05/26 04:19:50;;;;;;;2.70;2.10;;;;;;;11.09;64.05;100449.95;124617;1104;103264;-80
2021/05/26 04:22:32;;;;;;;2.73;2.07;;;;;;;11.09;63.38;100463.28;124720;1104;103283;-80
2021/05/26 04:25:01;;;;;;;3.80;2.10;;;;;;;11.11;63.51;100472.09;125285;1105;103523;-81
2021/05/26 04:27:28;;;;;;;2.60;2.25;;;;;;;11.08;62.93;100474.84;124520;1104;103152;-79
2021/05/26 04:29:56;;;;;;;2.10;1.90;;;;;;;11.11;62.76;100469.42;124485;1104;103173;-80
2021/05/26 04:32:27;;;;;;;2.30;1.70;;;;;;;11.16;62.86;100463.98;124453;1100;103243;-80
2021/05/26 04:34:54;;;;;;;3.13;2.10;;;;;;;11.19;62.04;100467.41;124568;1104;103198;-81
2021/05/26 04:37:22;;;;;;;33.20;24.95;;;;;;;11.23;62.58;100467.34;125101;1098;103360;-82
2021/05/26 04:39:49;;;;;;;9.60;6.37;;;;;;;11.26;62.31;100475.25;124725;1104;103304;-78
2021/05/26 04:42:16;;;;;;;3.17;1.53;;;;;;;11.29;62.15;100476.05;124629;1099;103544;-81
2021/05/26 04:44:44;;;;;;;8.23;2.10;;;;;;;11.35;62.56;100477.66;124690;1104;103225;-79
2021/05/26 04:47:25;;;;;;;4.45;1.93;;;;;;;11.42;62.26;100471.22;123861;1101;103250;-79
2021/05/26 04:49:53;;;;;;;1.87;1.67;;;;;;;11.49;62.00;100474.58;123981;1105;103253;-81
2021/05/26 04:52:20;;;;;;;1.80;1.60;;;;;;;11.51;61.30;100478.09;124305;1105;103757;-78
2021/05/26 04:55:03;;;;;;;2.60;1.90;;;;;;;11.47;61.16;100469.30;123765;1103;103476;-79
2021/05/26 04:57:30;;;;;;;1.75;1.60;;;;;;;11.50;60.98;100473.67;124839;1107;103165;-80
2021/05/26 04:59:58;;;;;;;2.25;1.60;;;;;;;11.57;61.85;100471.70;124423;1104;103876;-79
2021/05/26 05:02:25;;;;;;;3.00;1.97;;;;;;;11.62;61.21;100476.00;124715;1104;103035;-78
2021/05/26 05:04:52;;;;;;;2.43;2.23;;;;;;;11.64;61.06;100475.95;124613;1099;103981;-81
2021/05/26 05:07:19;;;;;;;2.00;1.60;;;;;;;11.66;61.49;100466.98;124016;1104;103720;-78
2021/05/26 05:09:47;;;;;;;2.67;1.77;;;;;;;11.78;61.12;100480.86;124362;1104;103620;-80
2021/05/26 05:12:15;;;;;;;2.60;1.67;;;;;;;11.89;61.27;100489.44;124767;1105;103247;-78
2021/05/26 05:14:42;;;;;;;2.90;1.75;;;;;;;11.89;60.75;100478.77;124560;1099;103339;-78
2021/05/26 05:17:09;;;;;;;2.47;1.70;;;;;;;11.92;60.54;100473.32;124673;1099;103159;-82
2021/05/26 05:19:37;;;;;;;3.48;1.80;;;;;;;11.99;59.64;100479.38;124803;1104;103157;-79
2021/05/26 05:22:05;;;;;;;2.15;1.95;;;;;;;11.98;59.59;100469.61;124785;1104;103075;-79
2021/05/26 05:24:32;;;;;;;1.90;1.70;;;;;;;12.03;59.69;100473.02;124736;1099;103218;-81
2021/05/26 05:26:59;;;;;;;2.63;2.03;;;;;;;12.05;60.00;100479.20;125055;1101;103788;-81
2021/05/26 05:29:27;;;;;;;3.60;1.97;;;;;;;12.03;59.35;100481.02;124934;1101;103203;-79
2021/05/26 05:31:54;;;;;;;2.80;2.07;;;;;;;12.04;58.94;100480.11;125052;1101;103090;-80
2021/05/26 05:34:22;;;;;;;2.18;1.83;;;;;;;12.04;59.35;100493.45;124709;1102;103075;-80
2021/05/26 05:37:03;;;;;;;2.80;1.50;;;;;;;12.06;59.01;100486.26;127463;1104;101530;-79
2021/05/26 05:39:31;;;;;;;2.50;2.30;;;;;;;12.13;59.13;100476.26;127517;1104;101128;-79
2021/05/26 05:41:59;;;;;;;3.08;2.05;;;;;;;12.20;59.10;100476.02;124786;1104;103174;-78
2021/05/26 05:44:26;;;;;;;2.00;1.73;;;;;;;12.25;58.36;100478.56;124823;1104;103352;-79
2021/05/26 05:46:54;;;;;;;2.13;1.90;;;;;;;12.28;57.93;100474.92;124769;1104;103217;-78
2021/05/26 05:49:21;;;;;;;5.93;2.63;;;;;;;12.33;57.71;100481.85;124493;1105;103232;-78
2021/05/26 05:51:50;;;;;;;1.60;1.50;;;;;;;12.38;58.25;100479.91;124190;1104;103262;-79
2021/05/26 05:54:18;;;;;;;1.73;1.60;;;;;;;12.42;56.94;100471.78;125118;1104;103136;-79
2021/05/26 05:56:45;;;;;;;2.70;1.60;;;;;;;12.47;58.38;100470.70;124579;1105;103069;-80
2021/05/26 05:59:13;;;;;;;2.50;1.78;;;;;;;12.54;56.91;100474.05;124544;1104;103158;-80
2021/05/26 06:01:41;;;;;;;1.87;1.73;;;;;;;12.54;57.01;100474.94;124636;1105;103232;-80
2021/05/26 06:04:09;;;;;;;3.10;2.50;;;;;;;12.57;57.23;100483.76;124477;1104;103165;-79
2021/05/26 06:06:36;;;;;;;2.30;1.70;;;;;;;12.60;56.93;100484.54;124541;1100;103620;-79
2021/05/26 06:09:05;;;;;;;2.27;1.70;;;;;;;12.66;57.21;100488.80;124785;1105;103167;-79
2021/05/26 06:11:35;;;;;;;3.07;1.97;;;;;;;12.72;57.59;100485.93;124980;1098;103024;-81
2021/05/26 06:14:06;;;;;;;4.28;2.25;;;;;;;12.88;56.99;100479.13;124676;1103;103212;-80
2021/05/26 06:16:38;;;;;;;2.80;1.65;;;;;;;12.95;56.28;100481.59;124677;1102;103240;-77
2021/05/26 06:19:06;;;;;;;3.50;1.40;;;;;;;12.99;55.68;100480.55;125554;1101;103131;-78
2021/05/26 06:21:34;;;;;;;1.65;1.35;;;;;;;13.00;56.25;100485.84;125084;1096;102986;-80
2021/05/26 06:24:03;;;;;;;2.30;2.10;;;;;;;13.02;56.50;100483.11;125027;1101;103118;-82
2021/05/26 06:26:32;;;;;;;2.73;1.65;;;;;;;13.02;55.75;100484.00;125174;1101;103182;-79
2021/05/26 06:29:03;;;;;;;3.08;1.70;;;;;;;13.03;55.84;100483.08;125255;1101;103251;-80
2021/05/26 06:31:31;;;;;;;1.35;1.25;;;;;;;13.08;55.22;100485.58;124935;1101;103059;-80
2021/05/26 06:33:59;;;;;;;2.20;1.40;;;;;;;13.12;55.10;100476.52;124958;1096;103084;-81
2021/05/26 06:36:40;;;;;;;2.13;1.70;;;;;;;13.25;55.72;100484.98;125038;1096;103083;-77
2021/05/26 06:39:08;;;;;;;2.08;1.50;;;;;;;13.33;55.46;100485.57;125090;1101;103083;-81
2021/05/26 06:41:49;;;;;;;2.35;1.70;;;;;;;13.45;54.24;100486.06;124877;1105;103448;-80
2021/05/26 06:44:21;;;;;;;2.07;1.47;;;;;;;13.53;54.38;100481.33;124615;1099;103241;-82
2021/05/26 06:46:51;;;;;;;2.28;1.45;;;;;;;13.60;55.00;100482.83;124929;1096;103176;-79
2021/05/26 06:49:19;;;;;;;1.75;1.58;;;;;;;13.70;55.30;100484.23;124643;1096;103279;-81
2021/05/26 06:51:46;;;;;;;2.30;1.73;;;;;;;13.79;54.73;100484.81;125222;1096;103156;-81
2021/05/26 06:54:15;;;;;;;2.20;1.10;;;;;;;13.93;54.45;100486.95;124909;1101;102972;-79
2021/05/26 06:56:42;;;;;;;2.20;1.40;;;;;;;13.96;52.52;100487.70;124988;1101;103195;-80
2021/05/26 06:59:09;;;;;;;1.70;1.53;;;;;;;14.05;52.93;100481.13;124977;1101;103083;-79
2021/05/26 07:01:37;;;;;;;1.60;1.40;;;;;;;14.15;53.44;100490.52;124954;1101;103227;-79
2021/05/26 07:04:05;;;;;;;2.78;1.80;;;;;;;14.28;53.21;100479.34;124925;1096;103617;-79
2021/05/26 07:06:32;;;;;;;3.43;1.43;;;;;;;14.30;51.32;100490.84;124696;1097;103211;-81
2021/05/26 07:09:01;;;;;;;4.75;1.63;;;;;;;14.32;50.95;100499.71;125139;1101;102977;-82
2021/05/26 07:11:28;;;;;;;1.70;1.60;;;;;;;14.37;51.14;100495.05;124983;1101;103326;-81
2021/05/26 07:13:55;;;;;;;2.18;1.53;;;;;;;14.59;51.72;100492.33;125137;1101;103157;-80
2021/05/26 07:16:23;;;;;;;4.10;1.57;;;;;;;14.77;50.30;100501.45;125328;1097;103206;-80
2021/05/26 07:18:50;;;;;;;5.85;1.93;;;;;;;14.80;49.38;100503.14;124951;1096;103054;-77
2021/05/26 07:21:18;;;;;;;2.33;1.40;;;;;;;14.65;48.66;100499.30;125018;1101;103102;-80
2021/05/26 07:23:46;;;;;;;1.58;0.90;;;;;;;14.60;49.08;100504.80;126135;1101;103468;-79
2021/05/26 07:26:14;;;;;;;1.47;1.17;;;;;;;14.54;49.28;100510.41;125114;1096;103272;-78
2021/05/26 07:28:55;;;;;;;2.80;1.60;;;;;;;14.54;49.33;100516.66;124820;1102;103058;-78
2021/05/26 07:31:23;;;;;;;1.93;1.43;;;;;;;14.60;50.10;100504.80;124142;1101;103161;-79
2021/05/26 07:33:52;;;;;;;2.50;1.25;;;;;;;14.66;51.00;100506.38;124322;1096;103224;-77
2021/05/26 07:36:20;;;;;;;1.43;1.33;;;;;;;14.62;49.37;100505.63;124159;1097;103059;-78
2021/05/26 07:38:48;;;;;;;1.85;1.30;;;;;;;14.66;49.29;100499.23;124163;1097;103195;-81
2021/05/26 07:41:15;;;;;;;2.58;1.00;;;;;;;14.67;49.40;100487.55;124732;1101;103080;-78
2021/05/26 07:43:42;;;;;;;1.30;1.20;;;;;;;14.66;50.01;100499.23;124509;1101;103152;-79
2021/05/26 07:46:11;;;;;;;1.33;1.23;;;;;;;14.66;50.03;100493.88;124953;1096;103006;-81
2021/05/26 07:48:38;;;;;;;2.40;1.70;;;;;;;14.73;49.37;100494.48;124911;1101;103057;-82
2021/05/26 07:51:28;;;;;;;4.67;1.50;;;;;;;14.92;48.83;100486.52;124397;1101;103258;-78
2021/05/26 07:53:56;;;;;;;4.75;1.30;;;;;;;15.01;48.47;100495.99;124697;1096;103006;-77
2021/05/26 07:56:24;;;;;;;2.85;1.35;;;;;;;15.03;49.01;100484.27;124639;1101;103078;-80
2021/05/26 07:58:52;;;;;;;3.75;1.68;;;;;;;15.02;48.90;100495.03;124704;1096;103000;-79
2021/05/26 08:01:20;;;;;;;4.73;1.55;;;;;;;15.08;48.91;100488.55;124595;1101;103082;-79
2021/05/26 08:03:49;;;;;;;2.10;1.40;;;;;;;15.08;48.73;100489.41;125183;1101;103053;-80
2021/05/26 08:06:16;;;;;;;2.40;1.20;;;;;;;15.08;48.73;100497.45;124783;1101;103233;-80
2021/05/26 08:08:43;;;;;;;1.93;1.30;;;;;;;15.06;48.06;100496.64;124777;1101;103152;-78
2021/05/26 08:11:10;;;;;;;8.87;1.57;;;;;;;15.02;47.99;100492.34;124668;1101;103218;-78
2021/05/26 08:13:59;;;;;;;2.05;1.70;;;;;;;15.15;47.52;100488.19;124452;1102;103152;-79
2021/05/26 08:16:26;;;;;;;2.03;1.20;;;;;;;15.24;47.86;100488.75;124724;1096;102974;-79
2021/05/26 08:18:54;;;;;;;1.90;1.80;;;;;;;15.45;47.77;100484.20;124749;1096;103534;-77
2021/05/26 08:21:24;;;;;;;2.20;1.50;;;;;;;15.50;48.06;100484.87;124960;1101;103394;-79
2021/05/26 08:23:52;;;;;;;1.80;1.13;;;;;;;15.42;46.55;100482.56;124947;1101;103282;-84
2021/05/26 08:26:22;;;;;;;1.53;1.30;;;;;;;15.37;46.99;100481.89;124745;1096;103142;-81
2021/05/26 08:28:51;;;;;;;1.30;1.20;;;;;;;15.37;47.29;100477.38;126651;1096;103202;-80
2021/05/26 08:31:21;;;;;;;1.85;1.30;;;;;;;15.46;46.36;100485.95;125735;1101;103821;-80
2021/05/26 08:33:49;;;;;;;2.08;1.25;;;;;;;15.65;46.48;100477.95;124912;1097;103143;-81
2021/05/26 08:36:17;;;;;;;5.40;1.40;;;;;;;15.74;46.54;100487.38;125210;1101;103199;-81
2021/05/26 08:38:45;;;;;;;1.70;1.10;;;;;;;15.81;46.54;100492.43;124327;1096;103171;-81
2021/05/26 08:41:13;;;;;;;3.08;1.60;;;;;;;15.76;45.80;100486.36;124413;1103;103080;-79
2021/05/26 08:43:41;;;;;;;5.68;1.85;;;;;;;15.69;46.19;100488.46;124600;1101;103106;-76
2021/05/26 08:46:10;;;;;;;5.97;1.50;;;;;;;15.84;46.71;100489.59;127061;1102;103133;-79
2021/05/26 08:48:38;;;;;;;2.87;1.80;;;;;;;15.90;45.84;100488.45;125225;1096;103057;-80
2021/05/26 08:51:06;;;;;;;1.50;1.40;;;;;;;16.00;44.89;100488.88;124511;1101;103213;-80
2021/05/26 08:53:35;;;;;;;4.20;1.60;;;;;;;16.04;44.25;100487.78;124775;1096;103165;-79
2021/05/26 08:56:04;;;;;;;2.43;1.20;;;;;;;16.06;44.97;100483.22;125693;1096;103055;-84
2021/05/26 08:58:41;;;;;;;1.40;1.17;;;;;;;16.15;44.09;100490.81;124812;1101;103059;-78
2021/05/26 09:01:14;;;;;;;3.43;1.47;;;;;;;16.15;45.40;100489.95;125456;1096;103049;-83
2021/05/26 09:03:41;;;;;;;3.50;1.83;;;;;;;16.19;44.61;100489.75;124826;1101;103416;-82
2021/05/26 09:06:13;;;;;;;1.73;1.53;;;;;;;16.41;44.30;100490.48;124607;1104;103820;-79
2021/05/26 09:08:49;;;;;;;6.30;2.10;;;;;;;16.66;44.36;100465.94;124870;1101;103083;-77
2021/05/26 09:11:43;;;;;;;3.83;2.07;;;;;;;16.81;43.45;100467.86;125278;1096;103163;-81
2021/05/26 09:14:17;;;;;;;3.80;1.85;;;;;;;16.87;41.93;100459.48;124842;1101;103144;-78
2021/05/26 09:16:45;;;;;;;1.00;0.87;;;;;;;17.02;42.13;100459.64;124752;1101;103203;-79
2021/05/26 09:19:12;;;;;;;7.78;1.28;;;;;;;17.07;42.15;100451.34;124965;1101;103801;-77
2021/05/26 09:21:44;;;;;;;2.83;1.40;;;;;;;16.98;41.61;100453.58;125520;1096;103399;-80
2021/05/26 09:24:18;;;;;;;2.63;1.30;;;;;;;17.03;41.38;100464.97;124957;1096;103055;-78
2021/05/26 09:26:54;;;;;;;2.40;1.68;;;;;;;17.35;41.10;100472.27;125198;1096;103154;-80
2021/05/26 09:29:26;;;;;;;4.20;1.80;;;;;;;17.40;40.96;100462.13;125422;1101;103051;-80
2021/05/26 09:32:14;;;;;;;4.50;1.90;;;;;;;17.51;40.40;100467.83;125166;1101;103159;-81
2021/05/26 09:34:47;;;;;;;1.87;1.20;;;;;;;17.44;40.12;100466.40;124966;1096;103219;-83
2021/05/26 09:37:21;;;;;;;2.63;1.77;;;;;;;17.51;40.59;100466.94;125379;1101;103005;-79
2021/05/26 09:40:07;;;;;;;4.60;2.20;;;;;;;17.55;39.73;100465.81;125297;1101;103080;-80
2021/05/26 09:42:39;;;;;;;5.40;1.40;;;;;;;17.68;40.39;100461.48;124636;1101;103083;-78
2021/05/26 09:45:18;;;;;;;2.83;1.68;;;;;;;17.94;40.34;100445.75;124582;1096;103139;-78
2021/05/26 09:47:47;;;;;;;4.17;2.00;;;;;;;18.22;39.78;100465.75;124652;1097;102990;-81
2021/05/26 09:50:15;;;;;;;1.73;0.97;;;;;;;18.98;38.94;100456.81;125996;1097;103094;-80
2021/05/26 09:53:02;;;;;;;1.23;1.10;;;;;;;18.98;38.29;100458.63;124982;1096;103080;-78
2021/05/26 09:55:37;;;;;;;3.25;1.38;;;;;;;20.04;38.75;100451.14;124858;1102;103057;-79
2021/05/26 09:58:09;;;;;;;5.40;1.45;;;;;;;20.97;37.14;100442.28;124739;1097;103834;-79
2021/05/26 10:00:38;;;;;;;3.73;1.60;;;;;;;21.45;35.34;100450.63;124701;1101;103212;-79
2021/05/26 10:03:06;;;;;;;1.70;1.40;;;;;;;21.10;35.08;100445.88;125021;1101;103054;-81
2021/05/26 10:05:34;;;;;;;1.78;1.23;;;;;;;21.34;34.97;100454.11;125051;1097;103200;-79
2021/05/26 10:08:06;;;;;;;2.27;1.70;;;;;;;22.10;33.68;100443.28;124928;1097;103080;-77
2021/05/26 10:10:34;;;;;;;4.00;1.50;;;;;;;21.38;33.53;100443.93;124830;1096;103080;-80
2021/05/26 10:13:05;;;;;;;4.65;2.00;;;;;;;20.70;33.07;100437.80;124975;1101;103065;-78
2021/05/26 10:15:34;;;;;;;2.40;1.27;;;;;;;20.14;34.56;100438.77;124953;1101;103036;-78
2021/05/26 10:18:02;;;;;;;3.63;1.60;;;;;;;20.06;34.93;100443.81;124965;1096;103641;-79
2021/05/26 10:20:44;;;;;;;5.20;1.63;;;;;;;20.20;33.40;100430.22;124796;1096;103173;-77
2021/05/26 10:23:19;;;;;;;3.10;1.48;;;;;;;20.61;33.76;100433.84;124566;1096;103177;-79
2021/05/26 10:25:48;;;;;;;2.75;1.43;;;;;;;21.44;32.53;100419.09;124759;1096;103030;-83
2021/05/26 10:28:34;;;;;;;3.68;1.00;;;;;;;22.38;30.46;100417.68;124632;1102;102942;-82
2021/05/26 10:31:04;;;;;;;3.15;1.38;;;;;;;22.03;30.87;100422.99;125641;1096;103030;-78
2021/05/26 10:33:45;;;;;;;3.80;1.70;;;;;;;21.68;30.92;100424.60;124685;1102;103103;-81
2021/05/26 10:36:14;;;;;;;3.30;1.10;;;;;;;22.05;30.93;100407.48;124916;1096;103216;-78
2021/05/26 10:38:59;;;;;;;6.77;1.60;;;;;;;21.87;31.53;100412.41;124848;1101;103052;-77
2021/05/26 10:41:50;;;;;;;2.07;1.17;;;;;;;22.48;31.16;100397.98;124976;1104;103176;-77
2021/05/26 10:44:19;;;;;;;2.00;1.50;;;;;;;23.79;28.78;100403.98;124999;1101;103212;-82
2021/05/26 10:46:49;;;;;;;5.10;1.40;;;;;;;24.08;27.66;100392.56;124873;1097;103126;-77
2021/05/26 10:49:17;;;;;;;4.20;1.33;;;;;;;24.31;27.48;100389.77;124588;1101;102978;-82
2021/05/26 10:51:51;;;;;;;2.87;1.57;;;;;;;23.49;27.98;100388.31;124663;1101;103057;-79
2021/05/26 10:54:38;;;;;;;1.63;1.13;;;;;;;22.95;29.34;100387.13;124900;1101;103197;-78
2021/05/26 10:57:07;;;;;;;3.20;1.80;;;;;;;22.04;30.46;100392.19;124780;1101;102970;-80
2021/05/26 10:59:35;;;;;;;2.00;1.27;;;;;;;21.56;31.10;100390.27;124662;1096;103177;-77
2021/05/26 11:04:50;;;;;;;2.45;1.20;;;;;;;21.15;32.90;100381.42;124848;1101;103075;-78
2021/05/26 11:07:18;;;;;;;2.70;1.20;;;;;;;21.11;32.11;100379.91;124609;1102;103553;-80
2021/05/26 11:10:03;;;;;;;2.97;1.20;;;;;;;20.95;32.04;100377.42;124580;1095;103052;-83
2021/05/26 11:12:56;;;;;;;3.37;1.27;;;;;;;20.57;32.32;100374.64;124834;1101;103100;-80
2021/05/26 11:15:44;;;;;;;3.10;1.78;;;;;;;20.44;32.86;100364.63;124891;1101;103669;-80
2021/05/26 11:18:27;;;;;;;2.90;1.43;;;;;;;20.31;32.97;100380.85;124960;1096;103084;-78
2021/05/26 11:20:55;;;;;;;4.78;1.55;;;;;;;19.95;33.53;100394.97;125349;1096;101791;-80
2021/05/26 11:23:22;;;;;;;3.73;1.20;;;;;;;19.84;33.97;100377.61;125126;1101;103054;-80
2021/05/26 11:25:56;;;;;;;2.10;1.00;;;;;;;19.95;35.44;100379.61;124930;1101;103094;-83
2021/05/26 11:28:28;;;;;;;2.85;1.43;;;;;;;20.05;33.66;100372.63;124910;1096;103238;-80
2021/05/26 11:31:06;;;;;;;2.90;1.17;;;;;;;20.01;33.35;100381.06;125597;1101;103061;-81